createdAt,value
2024-03-03T00:02:00.588Z,16.17
2024-03-03T00:04:27.275Z,15.40
2024-03-03T00:06:53.787Z,16.40
2024-03-03T00:09:21.973Z,16.05
2024-03-03T00:11:48.498Z,16.02
2024-03-03T00:14:15.687Z,16.90
2024-03-03T00:16:43.068Z,15.82
2024-03-03T00:19:10.150Z,16.00
2024-03-03T00:21:36.681Z,16.42
2024-03-03T00:24:03.541Z,15.38
2024-03-03T00:26:32.119Z,17.13
2024-03-03T00:28:58.633Z,16.92
2024-03-03T00:31:25.216Z,16.45
2024-03-03T00:33:51.795Z,16.35
2024-03-03T00:36:18.299Z,15.75
2024-03-03T00:38:44.845Z,15.32
2024-03-03T00:41:11.960Z,16.98
2024-03-03T00:43:38.679Z,15.38
2024-03-03T00:46:06.454Z,15.55
2024-03-03T00:50:59.434Z,15.88
2024-03-03T00:53:26.627Z,15.23
2024-03-03T00:55:53.431Z,14.70
2024-03-03T00:58:21.407Z,16.13
2024-03-03T01:03:14.901Z,15.73
2024-03-03T01:05:41.360Z,16.27
2024-03-03T01:08:07.863Z,16.70
2024-03-03T01:10:34.414Z,16.33
2024-03-03T01:13:01.182Z,15.88
2024-03-03T01:15:27.650Z,15.07
2024-03-03T01:17:54.242Z,14.45
2024-03-03T01:20:20.722Z,15.10
2024-03-03T01:22:47.277Z,15.18
2024-03-03T01:25:13.876Z,16.83
2024-03-03T01:27:40.434Z,15.63
2024-03-03T01:30:07.459Z,16.17
2024-03-03T01:32:34.281Z,15.88
2024-03-03T01:35:00.850Z,16.02
2024-03-03T01:37:27.420Z,15.93
2024-03-03T01:39:54.752Z,15.50
2024-03-03T01:42:21.340Z,15.23
2024-03-03T01:44:48.262Z,14.82
2024-03-03T01:47:15.106Z,16.23
2024-03-03T01:49:46.251Z,16.63
2024-03-03T01:52:13.272Z,15.75
2024-03-03T01:54:39.951Z,17.10
2024-03-03T01:57:12.968Z,16.35
2024-03-03T01:59:41.606Z,15.95
2024-03-03T02:02:08.282Z,16.13
2024-03-03T02:04:35.854Z,16.65
2024-03-03T02:07:02.980Z,17.33
2024-03-03T02:09:29.527Z,18.23
2024-03-03T02:11:57.222Z,17.83
2024-03-03T02:14:23.698Z,17.58
2024-03-03T02:16:50.256Z,16.23
2024-03-03T02:19:18.440Z,16.85
2024-03-03T02:21:45.444Z,15.95
2024-03-03T02:24:12.026Z,15.18
2024-03-03T02:26:38.613Z,15.98
2024-03-03T02:29:06.319Z,15.02
2024-03-03T02:31:33.717Z,14.43
2024-03-03T02:34:00.360Z,14.32
2024-03-03T02:36:27.025Z,14.38
2024-03-03T02:38:53.714Z,13.98
2024-03-03T02:41:20.694Z,13.65
2024-03-03T02:43:47.281Z,14.65
2024-03-03T02:46:14.972Z,13.77
2024-03-03T02:48:41.916Z,17.27
2024-03-03T02:51:08.460Z,15.90
2024-03-03T02:53:35.078Z,17.45
2024-03-03T02:56:01.677Z,17.60
2024-03-03T02:58:29.725Z,17.35
2024-03-03T03:03:22.961Z,15.82
2024-03-03T03:05:49.500Z,16.33
2024-03-03T03:08:15.991Z,14.80
2024-03-03T03:10:42.565Z,17.80
2024-03-03T03:13:09.180Z,18.50
2024-03-03T03:15:37.426Z,17.63
2024-03-03T03:18:07.769Z,17.27
2024-03-03T03:20:35.503Z,17.25
2024-03-03T03:23:02.100Z,18.77
2024-03-03T03:25:28.643Z,17.85
2024-03-03T03:27:55.153Z,17.00
2024-03-03T03:30:21.931Z,16.17
2024-03-03T03:32:48.380Z,16.40
2024-03-03T03:35:14.981Z,15.40
2024-03-03T03:37:41.570Z,15.15
2024-03-03T03:40:11.284Z,17.98
2024-03-03T03:42:38.197Z,16.42
2024-03-03T03:45:05.228Z,16.23
2024-03-03T03:47:35.014Z,15.98
2024-03-03T03:50:01.585Z,17.60
2024-03-03T03:52:29.015Z,20.13
2024-03-03T03:54:55.574Z,18.27
2024-03-03T03:57:22.186Z,18.88
2024-03-03T03:59:48.605Z,19.60
2024-03-03T04:02:15.068Z,19.55
2024-03-03T04:04:41.572Z,19.08
2024-03-03T04:07:08.213Z,20.77
2024-03-03T04:09:34.909Z,22.25
2024-03-03T04:12:01.442Z,19.05
2024-03-03T04:14:28.041Z,18.73
2024-03-03T04:16:54.508Z,18.17
2024-03-03T04:19:21.019Z,19.58
2024-03-03T04:21:47.677Z,19.73
2024-03-03T04:24:15.069Z,20.48
2024-03-03T04:26:43.374Z,20.35
2024-03-03T04:31:43.809Z,18.80
2024-03-03T04:34:11.299Z,25.75
2024-03-03T04:36:38.314Z,22.52
2024-03-03T04:39:05.457Z,21.05
2024-03-03T04:41:32.267Z,21.52
2024-03-03T04:43:58.741Z,21.45
2024-03-03T04:46:25.294Z,20.35
2024-03-03T04:48:51.815Z,19.55
2024-03-03T04:51:18.837Z,19.50
2024-03-03T04:53:45.850Z,20.67
2024-03-03T04:56:12.308Z,19.58
2024-03-03T04:58:39.003Z,18.40
2024-03-03T05:01:05.656Z,18.35
2024-03-03T05:03:32.157Z,18.08
2024-03-03T05:05:58.639Z,17.27
2024-03-03T05:08:25.133Z,18.55
2024-03-03T05:10:52.139Z,18.08
2024-03-03T05:13:18.727Z,16.38
2024-03-03T05:15:45.340Z,15.85
2024-03-03T05:18:11.810Z,17.40
2024-03-03T05:20:38.596Z,16.23
2024-03-03T05:23:05.191Z,16.08
2024-03-03T05:25:31.656Z,15.55
2024-03-03T05:27:58.148Z,14.90
2024-03-03T05:30:24.822Z,15.27
2024-03-03T05:32:52.292Z,15.27
2024-03-03T05:35:18.913Z,15.80
2024-03-03T05:37:45.360Z,14.77
2024-03-03T05:40:12.094Z,15.38
2024-03-03T05:42:38.780Z,14.38
2024-03-03T05:45:06.861Z,15.10
2024-03-03T05:47:33.421Z,15.10
2024-03-03T05:50:00.005Z,18.33
2024-03-03T05:52:26.580Z,17.08
2024-03-03T05:54:53.280Z,17.08
2024-03-03T05:57:19.724Z,17.33
2024-03-03T05:59:46.447Z,17.08
2024-03-03T06:02:13.004Z,15.90
2024-03-03T06:04:39.514Z,17.15
2024-03-03T06:07:06.076Z,15.38
2024-03-03T06:09:32.751Z,16.52
2024-03-03T06:12:03.732Z,15.57
2024-03-03T06:14:30.203Z,16.25
2024-03-03T06:16:57.357Z,16.38
2024-03-03T06:19:23.985Z,15.18
2024-03-03T06:21:51.961Z,15.52
2024-03-03T06:24:19.567Z,17.75
2024-03-03T06:26:46.554Z,16.95
2024-03-03T06:29:13.143Z,15.88
2024-03-03T06:31:45.111Z,18.52
2024-03-03T06:34:11.779Z,17.40
2024-03-03T06:36:38.626Z,21.10
2024-03-03T06:39:05.995Z,20.30
2024-03-03T06:41:32.522Z,19.15
2024-03-03T06:43:59.055Z,18.73
2024-03-03T06:46:25.674Z,20.33
2024-03-03T06:48:52.262Z,20.73
2024-03-03T06:51:18.777Z,21.45
2024-03-03T06:53:45.247Z,21.55
2024-03-03T06:56:16.256Z,19.80
2024-03-03T06:58:44.416Z,19.08
2024-03-03T07:01:11.689Z,17.25
2024-03-03T07:04:07.026Z,17.02
2024-03-03T07:06:34.907Z,15.57
2024-03-03T07:11:28.540Z,12.25
2024-03-03T07:13:55.148Z,11.82
2024-03-03T07:16:21.794Z,11.23
2024-03-03T07:18:48.383Z,12.05
2024-03-03T07:21:14.983Z,12.32
2024-03-03T07:23:41.741Z,12.02
2024-03-03T07:26:08.365Z,11.10
2024-03-03T07:28:34.879Z,11.18
2024-03-03T07:31:01.458Z,10.57
2024-03-03T07:33:28.220Z,14.52
2024-03-03T07:35:54.957Z,14.60
2024-03-03T07:38:21.706Z,11.15
2024-03-03T07:40:48.217Z,11.50
2024-03-03T07:43:15.880Z,9.10
2024-03-03T07:45:42.481Z,9.50
2024-03-03T07:48:09.095Z,10.55
2024-03-03T07:50:35.581Z,9.75
2024-03-03T07:53:02.123Z,10.80
2024-03-03T07:55:30.662Z,10.38
2024-03-03T07:57:57.656Z,11.20
2024-03-03T08:00:24.271Z,10.20
2024-03-03T08:02:50.762Z,10.18
2024-03-03T08:05:17.243Z,11.65
2024-03-03T08:07:43.748Z,10.88
2024-03-03T08:10:10.428Z,9.95
2024-03-03T08:12:36.969Z,11.32
2024-03-03T08:15:03.660Z,10.80
2024-03-03T08:17:30.299Z,10.45
2024-03-03T08:19:56.923Z,10.10
2024-03-03T08:22:23.531Z,9.27
2024-03-03T08:24:50.028Z,9.48
2024-03-03T08:27:16.542Z,9.43
2024-03-03T08:29:43.183Z,9.27
2024-03-03T08:32:09.617Z,9.55
2024-03-03T08:34:36.108Z,10.35
2024-03-03T08:37:02.630Z,10.75
2024-03-03T08:39:29.626Z,10.20
2024-03-03T08:41:56.257Z,10.90
2024-03-03T08:44:24.125Z,11.52
2024-03-03T08:46:52.248Z,11.27
2024-03-03T08:49:19.178Z,10.07
2024-03-03T08:51:45.827Z,10.68
2024-03-03T08:54:12.539Z,11.60
2024-03-03T08:56:39.108Z,10.43
2024-03-03T08:59:05.739Z,11.55
2024-03-03T09:01:32.384Z,11.05
2024-03-03T09:03:58.984Z,10.13
2024-03-03T09:06:25.483Z,11.13
2024-03-03T09:08:52.187Z,11.10
2024-03-03T09:11:18.706Z,11.05
2024-03-03T09:13:45.249Z,11.27
2024-03-03T09:16:14.777Z,10.50
2024-03-03T09:18:41.584Z,9.98
2024-03-03T09:21:09.169Z,9.18
2024-03-03T09:23:36.131Z,10.55
2024-03-03T09:26:02.806Z,10.50
2024-03-03T09:28:29.447Z,11.07
2024-03-03T09:30:56.121Z,11.13
2024-03-03T09:33:22.703Z,11.25
2024-03-03T09:35:49.207Z,10.90
2024-03-03T09:38:15.739Z,10.65
2024-03-03T09:40:44.418Z,9.82
2024-03-03T09:43:15.899Z,10.18
2024-03-03T09:45:42.400Z,8.70
2024-03-03T09:48:09.723Z,9.85
2024-03-03T09:50:36.487Z,9.60
2024-03-03T09:53:04.045Z,10.82
2024-03-03T09:57:58.302Z,10.50
2024-03-03T10:00:27.390Z,9.10
2024-03-03T10:02:55.323Z,9.88
2024-03-03T10:05:23.958Z,9.98
2024-03-03T10:07:56.326Z,8.05
2024-03-03T10:10:28.287Z,7.65
2024-03-03T10:12:56.209Z,7.60
2024-03-03T10:15:24.082Z,7.40
2024-03-03T10:17:51.696Z,7.47
2024-03-03T10:20:18.345Z,5.78
2024-03-03T10:22:45.455Z,7.45
2024-03-03T10:25:14.187Z,7.35
2024-03-03T10:27:48.440Z,6.22
2024-03-03T10:32:44.285Z,5.55
2024-03-03T10:35:19.870Z,5.65
2024-03-03T10:37:53.242Z,5.60
2024-03-03T10:40:23.251Z,5.47
2024-03-03T10:42:49.979Z,5.07
2024-03-03T10:45:16.521Z,4.60
2024-03-03T10:47:43.527Z,5.35
2024-03-03T10:50:17.504Z,5.45
2024-03-03T10:52:44.832Z,4.90
2024-03-03T10:55:12.838Z,4.55
2024-03-03T10:57:40.264Z,4.90
2024-03-03T11:00:12.899Z,4.32
2024-03-03T11:02:40.617Z,3.80
2024-03-03T11:05:07.757Z,4.13
2024-03-03T11:07:38.051Z,3.85
2024-03-03T11:10:05.892Z,5.88
2024-03-03T11:12:37.460Z,6.03
2024-03-03T11:15:06.339Z,4.80
2024-03-03T11:17:36.590Z,4.25
2024-03-03T11:20:04.958Z,3.50
2024-03-03T11:22:38.427Z,4.35
2024-03-03T11:25:07.341Z,7.07
2024-03-03T11:27:40.458Z,6.18
2024-03-03T11:30:11.298Z,5.00
2024-03-03T11:32:40.386Z,3.90
2024-03-03T11:35:08.262Z,3.35
2024-03-03T11:37:34.815Z,3.75
2024-03-03T11:40:04.023Z,4.63
2024-03-03T11:42:33.705Z,3.88
2024-03-03T11:45:01.297Z,4.10
2024-03-03T11:47:33.056Z,3.50
2024-03-03T11:50:00.439Z,3.85
2024-03-03T11:52:44.160Z,3.13
2024-03-03T11:55:29.293Z,2.88
2024-03-03T11:57:59.943Z,2.30
2024-03-03T12:00:28.859Z,2.53
2024-03-03T12:02:57.501Z,2.38
2024-03-03T12:05:25.728Z,2.70
2024-03-03T12:07:54.124Z,1.90
2024-03-03T12:10:32.709Z,2.00
2024-03-03T12:13:02.482Z,1.80
2024-03-03T12:15:30.453Z,2.45
2024-03-03T12:17:58.794Z,1.98
2024-03-03T12:20:28.185Z,2.30
2024-03-03T12:22:55.657Z,2.03
2024-03-03T12:25:24.970Z,2.00
2024-03-03T12:27:59.111Z,2.10
2024-03-03T12:30:31.914Z,2.22
2024-03-03T12:32:59.615Z,1.90
2024-03-03T12:35:26.345Z,2.33
2024-03-03T12:37:54.579Z,1.92
2024-03-03T12:40:21.731Z,1.92
2024-03-03T12:42:52.018Z,1.50
2024-03-03T12:45:19.312Z,1.27
2024-03-03T12:47:45.900Z,1.75
2024-03-03T12:50:13.802Z,1.25
2024-03-03T12:52:42.061Z,1.30
2024-03-03T12:55:12.229Z,1.23
2024-03-03T12:57:40.721Z,2.00
2024-03-03T13:00:14.544Z,1.50
2024-03-03T13:02:43.674Z,1.02
2024-03-03T13:05:16.258Z,1.05
2024-03-03T13:07:51.761Z,1.27
2024-03-03T13:10:22.880Z,1.30
2024-03-03T13:12:54.208Z,1.30
2024-03-03T13:15:22.362Z,1.30
2024-03-03T13:18:17.244Z,1.20
2024-03-03T13:20:44.096Z,1.00
2024-03-03T13:23:20.474Z,1.33
2024-03-03T13:25:47.620Z,1.10
2024-03-03T13:28:16.018Z,1.30
2024-03-03T13:30:57.721Z,1.05
2024-03-03T13:33:24.954Z,1.10
2024-03-03T13:35:52.226Z,1.15
2024-03-03T13:38:18.944Z,1.02
2024-03-03T13:40:45.720Z,1.23
2024-03-03T13:43:12.370Z,1.17
2024-03-03T13:45:39.196Z,1.02
2024-03-03T13:48:11.422Z,0.85
2024-03-03T13:50:37.926Z,1.45
2024-03-03T13:53:05.270Z,0.90
2024-03-03T13:57:58.432Z,1.00
2024-03-03T14:00:25.008Z,1.20
2024-03-03T14:02:52.301Z,1.10
2024-03-03T14:07:45.655Z,1.00
2024-03-03T14:10:13.502Z,1.05
2024-03-03T14:12:40.076Z,0.85
2024-03-03T14:15:07.054Z,1.00
2024-03-03T14:17:34.416Z,1.10
2024-03-03T14:20:01.389Z,1.00
2024-03-03T14:22:27.987Z,1.05
2024-03-03T14:24:54.833Z,1.02
2024-03-03T14:27:21.353Z,0.80
2024-03-03T14:29:48.002Z,0.73
2024-03-03T14:32:15.029Z,0.82
2024-03-03T14:34:41.447Z,1.10
2024-03-03T14:37:08.828Z,2.85
2024-03-03T14:39:35.405Z,2.10
2024-03-03T14:42:01.827Z,1.50
2024-03-03T14:44:28.564Z,1.02
2024-03-03T14:46:55.190Z,0.93
2024-03-03T14:49:22.007Z,0.82
2024-03-03T14:51:48.594Z,0.88
2024-03-03T14:54:15.193Z,0.90
2024-03-03T14:56:41.840Z,1.17
2024-03-03T14:59:08.361Z,1.20
2024-03-03T15:01:34.923Z,1.20
2024-03-03T15:04:01.493Z,1.10
2024-03-03T15:06:28.017Z,1.00
2024-03-03T15:08:54.887Z,1.13
2024-03-03T15:11:21.341Z,1.08
2024-03-03T15:13:47.817Z,1.23
2024-03-03T15:16:14.373Z,1.02
2024-03-03T15:18:40.926Z,1.30
2024-03-03T15:21:07.402Z,1.05
2024-03-03T15:23:34.110Z,1.10
2024-03-03T15:26:00.751Z,1.10
2024-03-03T15:28:27.306Z,1.05
2024-03-03T15:30:54.173Z,1.10
2024-03-03T15:33:20.822Z,1.00
2024-03-03T15:35:48.230Z,0.98
2024-03-03T15:38:14.673Z,1.00
2024-03-03T15:40:41.273Z,1.17
2024-03-03T15:43:07.746Z,1.08
2024-03-03T15:45:36.757Z,1.23
2024-03-03T15:48:05.374Z,0.90
2024-03-03T15:50:31.998Z,1.17
2024-03-03T15:52:58.769Z,0.93
2024-03-03T15:55:25.388Z,0.98
2024-03-03T15:57:52.092Z,1.45
2024-03-03T16:00:18.834Z,1.20
2024-03-03T16:02:45.317Z,1.40
2024-03-03T16:05:11.991Z,1.20
2024-03-03T16:07:39.337Z,1.15
2024-03-03T16:10:07.887Z,0.95
2024-03-03T16:12:35.061Z,0.90
2024-03-03T16:15:02.081Z,1.20
2024-03-03T16:17:28.690Z,1.08
2024-03-03T16:19:55.489Z,1.15
2024-03-03T16:22:22.073Z,1.17
2024-03-03T16:24:48.840Z,1.10
2024-03-03T16:27:15.424Z,1.50
2024-03-03T16:29:41.884Z,1.40
2024-03-03T16:32:08.745Z,1.77
2024-03-03T16:34:35.408Z,4.40
2024-03-03T16:37:02.080Z,5.65
2024-03-03T16:39:28.671Z,4.43
2024-03-03T16:41:55.380Z,3.70
2024-03-03T16:44:23.521Z,7.07
2024-03-03T16:46:50.215Z,3.38
2024-03-03T16:49:16.738Z,2.47
2024-03-03T16:51:43.209Z,1.67
2024-03-03T16:54:09.711Z,2.05
2024-03-03T16:56:36.985Z,2.35
2024-03-03T16:59:03.741Z,2.90
2024-03-03T17:01:30.313Z,2.60
2024-03-03T17:03:56.897Z,2.72
2024-03-03T17:06:23.991Z,3.13
2024-03-03T17:08:51.472Z,2.33
2024-03-03T17:11:17.996Z,1.92
2024-03-03T17:13:44.518Z,1.88
2024-03-03T17:16:11.267Z,1.70
2024-03-03T17:18:37.778Z,1.73
2024-03-03T17:21:05.893Z,1.60
2024-03-03T17:23:32.755Z,1.40
2024-03-03T17:25:59.214Z,1.38
2024-03-03T17:28:25.862Z,1.17
2024-03-03T17:30:52.489Z,1.70
2024-03-03T17:33:19.277Z,1.50
2024-03-03T17:35:45.829Z,1.90
2024-03-03T17:38:12.332Z,1.65
2024-03-03T17:40:40.013Z,1.30
2024-03-03T17:43:06.770Z,1.33
2024-03-03T17:45:33.289Z,1.38
2024-03-03T17:47:59.991Z,1.50
2024-03-03T17:50:26.669Z,1.25
2024-03-03T17:52:53.625Z,0.90
2024-03-03T17:55:20.330Z,1.05
2024-03-03T17:57:47.966Z,1.45
2024-03-03T18:02:41.760Z,1.45
2024-03-03T18:05:09.805Z,1.58
2024-03-03T18:07:36.544Z,1.27
2024-03-03T18:10:03.144Z,1.50
2024-03-03T18:12:30.879Z,1.27
2024-03-03T18:17:23.938Z,1.30
2024-03-03T18:19:50.470Z,1.50
2024-03-03T18:22:17.212Z,1.58
2024-03-03T18:24:44.124Z,1.50
2024-03-03T18:27:10.623Z,2.13
2024-03-03T18:29:37.661Z,1.77
2024-03-03T18:32:04.565Z,1.90
2024-03-03T18:34:31.706Z,2.20
2024-03-03T18:36:58.651Z,8.98
2024-03-03T18:39:25.310Z,7.60
2024-03-03T18:41:52.472Z,5.03
2024-03-03T18:44:19.742Z,5.55
2024-03-03T18:46:46.443Z,4.03
2024-03-03T18:49:13.041Z,4.28
2024-03-03T18:51:39.546Z,4.00
2024-03-03T18:54:06.193Z,4.03
2024-03-03T18:56:32.681Z,4.40
2024-03-03T18:58:59.093Z,3.17
2024-03-03T19:01:25.727Z,3.45
2024-03-03T19:03:52.280Z,2.97
2024-03-03T19:06:18.838Z,10.40
2024-03-03T19:08:45.356Z,7.40
2024-03-03T19:11:12.010Z,5.55
2024-03-03T19:13:38.710Z,4.43
2024-03-03T19:16:07.346Z,4.65
2024-03-03T19:18:33.912Z,4.38
2024-03-03T19:21:00.851Z,4.13
2024-03-03T19:23:27.503Z,3.28
2024-03-03T19:25:53.998Z,3.22
2024-03-03T19:28:20.896Z,3.42
2024-03-03T19:30:48.214Z,2.58
2024-03-03T19:33:14.668Z,2.78
2024-03-03T19:35:42.526Z,2.50
2024-03-03T19:38:09.080Z,2.47
2024-03-03T19:40:35.691Z,1.98
2024-03-03T19:43:03.057Z,1.85
2024-03-03T19:45:29.662Z,2.08
2024-03-03T19:47:56.193Z,2.30
2024-03-03T19:50:22.688Z,2.03
2024-03-03T19:52:49.176Z,1.98
2024-03-03T19:55:15.698Z,2.10
2024-03-03T19:57:42.356Z,1.83
2024-03-03T20:00:15.773Z,2.35
2024-03-03T20:02:45.753Z,2.40
2024-03-03T20:05:12.218Z,2.42
2024-03-03T20:07:38.839Z,2.45
2024-03-03T20:10:08.044Z,2.53
2024-03-03T20:12:34.620Z,2.50
2024-03-03T20:15:03.074Z,2.40
2024-03-03T20:17:30.125Z,2.28
2024-03-03T20:19:57.364Z,2.55
2024-03-03T20:22:24.268Z,3.83
2024-03-03T20:24:50.900Z,3.45
2024-03-03T20:27:17.443Z,3.63
2024-03-03T20:29:44.017Z,3.88
2024-03-03T20:32:10.549Z,3.38
2024-03-03T20:34:37.079Z,3.90
2024-03-03T20:37:03.628Z,3.42
2024-03-03T20:39:30.961Z,3.88
2024-03-03T20:41:57.432Z,3.58
2024-03-03T20:44:23.949Z,3.42
2024-03-03T20:46:51.408Z,3.67
2024-03-03T20:49:21.339Z,3.95
2024-03-03T20:51:47.905Z,3.95
2024-03-03T20:54:16.278Z,3.78
2024-03-03T20:56:42.942Z,4.10
2024-03-03T20:59:10.869Z,4.63
2024-03-03T21:04:04.969Z,4.85
2024-03-03T21:06:31.517Z,5.18
2024-03-03T21:08:58.734Z,5.72
2024-03-03T21:11:28.220Z,4.75
2024-03-03T21:13:58.781Z,5.00
2024-03-03T21:16:26.069Z,4.95
2024-03-03T21:18:52.639Z,4.78
2024-03-03T21:21:19.208Z,4.65
2024-03-03T21:23:45.770Z,4.78
2024-03-03T21:26:12.326Z,6.95
2024-03-03T21:28:38.851Z,6.57
2024-03-03T21:31:06.286Z,5.25
2024-03-03T21:33:32.906Z,5.80
2024-03-03T21:36:00.054Z,5.28
2024-03-03T21:38:26.668Z,4.88
2024-03-03T21:40:53.420Z,5.40
2024-03-03T21:43:19.999Z,5.38
2024-03-03T21:45:46.629Z,5.10
2024-03-03T21:48:13.537Z,4.22
2024-03-03T21:50:40.717Z,4.63
2024-03-03T21:53:07.321Z,4.13
2024-03-03T21:55:34.232Z,5.13
2024-03-03T21:58:01.098Z,4.78
2024-03-03T22:00:27.720Z,4.82
2024-03-03T22:02:54.289Z,5.10
2024-03-03T22:05:20.738Z,5.28
2024-03-03T22:07:47.311Z,4.70
2024-03-03T22:10:13.830Z,5.47
2024-03-03T22:12:40.623Z,5.50
2024-03-03T22:15:07.635Z,5.20
2024-03-03T22:17:34.784Z,4.70
2024-03-03T22:20:01.419Z,4.40
2024-03-03T22:22:27.940Z,4.63
2024-03-03T22:24:56.301Z,4.85
2024-03-03T22:27:22.895Z,4.82
2024-03-03T22:29:50.547Z,4.60
2024-03-03T22:32:17.035Z,4.63
2024-03-03T22:34:43.971Z,4.65
2024-03-03T22:37:11.168Z,4.63
2024-03-03T22:39:37.862Z,4.85
2024-03-03T22:42:06.035Z,4.80
2024-03-03T22:44:33.684Z,5.40
2024-03-03T22:47:00.668Z,5.57
2024-03-03T22:49:27.735Z,5.07
2024-03-03T22:51:54.407Z,5.80
2024-03-03T22:54:23.931Z,5.38
2024-03-03T22:56:50.424Z,5.93
2024-03-03T22:59:16.971Z,5.93
2024-03-03T23:01:43.618Z,7.18
2024-03-03T23:04:10.488Z,6.68
2024-03-03T23:06:37.010Z,5.97
2024-03-03T23:09:06.223Z,5.30
2024-03-03T23:11:36.434Z,7.10
2024-03-03T23:14:04.867Z,7.80
2024-03-03T23:16:31.385Z,7.07
2024-03-03T23:18:58.002Z,6.40
2024-03-03T23:21:24.480Z,7.05
2024-03-03T23:23:50.900Z,6.00
2024-03-03T23:26:17.452Z,6.38
2024-03-03T23:28:44.216Z,6.38
2024-03-03T23:31:10.800Z,7.05
2024-03-03T23:33:37.246Z,7.55
2024-03-03T23:36:03.966Z,7.47
2024-03-03T23:38:30.386Z,8.50
2024-03-03T23:40:56.878Z,7.93
2024-03-03T23:43:23.439Z,9.02
2024-03-03T23:45:49.971Z,9.48
2024-03-03T23:48:16.550Z,9.02
2024-03-03T23:50:43.177Z,9.77
2024-03-03T23:53:10.019Z,9.48
2024-03-03T23:55:37.319Z,9.77
2024-03-03T23:58:04.181Z,10.02
